Terminal Aerodrome Forecast
Issued by NWS

Home | Current Version | Previous Version | Text Only | Print | Product List | Glossary On
Versions: 1 2 3 4 5 6 7 8 9 10 11 12 13 14 15 16 17 18 19 20 21 22 23 24 25 26
000
FTUS42 KCAE 280538
TAFCUB
TAF
KCUB 280538Z 2806/2906 VRB03KT P6SM VCSH SCT020 BKN050 BKN150
      TEMPO 2806/2808 5SM -SHRA BR BKN022 OVC040
     FM281200 VRB04KT P6SM SCT025 BKN050
     FM281600 11005KT P6SM SCT040=

USA.gov is the U.S. government's official web portal to all federal, state and local government web resources and services.